KMQY  Smyrna Airport

Add Bookmark

Smyrna, Tennessee, United States

Status Useage
Operational Public
Latitude Longitude
36° 0' 32" N 86° 31' 12" W
36.008972 -86.520083
Local (DST -5) UTC (GMT -6)
Sep 21, 2014 03:07 Sep 21, 2014 20:07
Sunrise-Sunset Local UTC
Begin Civil Twilight 06:07 11:07
Sunrise 06:32 11:32
Sunset 06:45 23:45
End Civil Twilight 07:10 00:10

Current Weather

METAR Observed VFR
KMQY 211856Z 28012KT 10SM BKN055 29/21 A2994 Sun, Sep 21, 2014 @ 18:56 UTC
(1 Hour, 11 Minutes ago)
Visual Flight Rules
Wind Visibility Clouds Conditions
280° at 12 knots (14 mph) 10 statute miles
  • Broken at 5,500' AGL
  • No significant weather
Temperatures Readings Precipitation
Current Temp 29°C (84°F)
Dewpoint 21°C (70°F)
Heat Index 31°C (88°F)
Humidity 62%
Altimeter 29.94"Hg
Sea Level Pressure 1014.3mb
Field Elevation 543'
None Recorded

Additional weather within a 50nm radius of KMQY

Map ICAO Location
KBNA 10.3nm N (312°)
KSYI 27.2nm S (173°)
KRNC 37.8nm E (119°)
KTHA 40nm S (161°)
KMRC 42.1nm S (230°)
KSRB 48.1nm E (086°)

24 Hour Weather History

Loading
-

24 Hour Weather Graphs

Loading
-

CheckWX.com is intended as a tool to help pilots better visualize weather data. It is not intended as a substitute for an official weather briefing obtained from a Flight Service Station. CheckWX.com does not meet the FAA requirements for an official pre-flight weather briefing. Therefore, it's important that pilots still call and obtain an official FSS pre-flight weather briefing.